sensor_id;sensor_type;location;lat;lon;timestamp;P1;durP1;ratioP1;P2;durP2;ratioP2
19406;SDS011;9839;53.364;-1.204;2023-02-28T00:00:21;5.90;;;3.30;;
19406;SDS011;9839;53.364;-1.204;2023-02-28T00:02:47;4.60;;;2.80;;
19406;SDS011;9839;53.364;-1.204;2023-02-28T00:05:14;4.13;;;2.43;;
19406;SDS011;9839;53.364;-1.204;2023-02-28T00:07:41;4.13;;;2.80;;
19406;SDS011;9839;53.364;-1.204;2023-02-28T00:10:07;4.53;;;2.50;;
19406;SDS011;9839;53.364;-1.204;2023-02-28T00:12:38;3.90;;;2.70;;
19406;SDS011;9839;53.364;-1.204;2023-02-28T00:15:07;6.20;;;2.80;;
19406;SDS011;9839;53.364;-1.204;2023-02-28T00:17:34;7.73;;;3.20;;
19406;SDS011;9839;53.364;-1.204;2023-02-28T00:20:00;5.70;;;3.00;;
19406;SDS011;9839;53.364;-1.204;2023-02-28T00:22:27;6.57;;;2.53;;
19406;SDS011;9839;53.364;-1.204;2023-02-28T00:24:52;3.73;;;1.97;;
19406;SDS011;9839;53.364;-1.204;2023-02-28T00:27:18;5.83;;;2.70;;
19406;SDS011;9839;53.364;-1.204;2023-02-28T00:29:43;4.93;;;2.73;;
19406;SDS011;9839;53.364;-1.204;2023-02-28T00:32:08;4.87;;;2.80;;
19406;SDS011;9839;53.364;-1.204;2023-02-28T00:34:34;5.43;;;2.90;;
19406;SDS011;9839;53.364;-1.204;2023-02-28T00:37:03;8.87;;;3.27;;
19406;SDS011;9839;53.364;-1.204;2023-02-28T00:39:30;12.10;;;4.40;;
19406;SDS011;9839;53.364;-1.204;2023-02-28T00:41:55;7.23;;;4.30;;
19406;SDS011;9839;53.364;-1.204;2023-02-28T00:44:20;13.33;;;5.77;;
19406;SDS011;9839;53.364;-1.204;2023-02-28T00:46:46;8.07;;;4.97;;
19406;SDS011;9839;53.364;-1.204;2023-02-28T00:49:12;15.90;;;5.60;;
19406;SDS011;9839;53.364;-1.204;2023-02-28T00:51:37;10.63;;;5.00;;
19406;SDS011;9839;53.364;-1.204;2023-02-28T00:54:03;11.40;;;4.67;;
19406;SDS011;9839;53.364;-1.204;2023-02-28T00:56:28;8.70;;;4.23;;
19406;SDS011;9839;53.364;-1.204;2023-02-28T00:58:53;12.37;;;5.00;;
19406;SDS011;9839;53.364;-1.204;2023-02-28T01:01:19;10.57;;;5.60;;
19406;SDS011;9839;53.364;-1.204;2023-02-28T01:03:44;12.40;;;5.00;;
19406;SDS011;9839;53.364;-1.204;2023-02-28T01:06:09;10.80;;;4.57;;
19406;SDS011;9839;53.364;-1.204;2023-02-28T01:08:35;8.87;;;5.20;;
19406;SDS011;9839;53.364;-1.204;2023-02-28T01:11:10;8.93;;;4.57;;
19406;SDS011;9839;53.364;-1.204;2023-02-28T01:13:36;7.93;;;4.43;;
19406;SDS011;9839;53.364;-1.204;2023-02-28T01:16:02;9.80;;;4.47;;
19406;SDS011;9839;53.364;-1.204;2023-02-28T01:18:27;7.67;;;4.23;;
19406;SDS011;9839;53.364;-1.204;2023-02-28T01:20:54;10.83;;;4.30;;
19406;SDS011;9839;53.364;-1.204;2023-02-28T01:23:20;8.97;;;3.93;;
19406;SDS011;9839;53.364;-1.204;2023-02-28T01:25:48;8.53;;;3.67;;
19406;SDS011;9839;53.364;-1.204;2023-02-28T01:28:17;10.63;;;4.00;;
19406;SDS011;9839;53.364;-1.204;2023-02-28T01:30:42;10.63;;;3.77;;
19406;SDS011;9839;53.364;-1.204;2023-02-28T01:33:08;11.47;;;4.90;;
19406;SDS011;9839;53.364;-1.204;2023-02-28T01:35:34;14.10;;;6.40;;
19406;SDS011;9839;53.364;-1.204;2023-02-28T01:38:00;19.17;;;9.03;;
19406;SDS011;9839;53.364;-1.204;2023-02-28T01:40:26;22.17;;;9.93;;
19406;SDS011;9839;53.364;-1.204;2023-02-28T01:42:51;27.40;;;11.83;;
19406;SDS011;9839;53.364;-1.204;2023-02-28T01:45:22;22.47;;;10.80;;
19406;SDS011;9839;53.364;-1.204;2023-02-28T01:47:53;18.33;;;9.93;;
19406;SDS011;9839;53.364;-1.204;2023-02-28T01:50:23;21.80;;;8.37;;
19406;SDS011;9839;53.364;-1.204;2023-02-28T01:52:52;17.37;;;7.00;;
19406;SDS011;9839;53.364;-1.204;2023-02-28T01:55:20;12.00;;;5.77;;
19406;SDS011;9839;53.364;-1.204;2023-02-28T01:57:48;12.37;;;5.77;;
19406;SDS011;9839;53.364;-1.204;2023-02-28T02:00:17;9.63;;;4.57;;
19406;SDS011;9839;53.364;-1.204;2023-02-28T02:02:45;13.77;;;4.70;;
19406;SDS011;9839;53.364;-1.204;2023-02-28T02:05:15;8.33;;;4.07;;
19406;SDS011;9839;53.364;-1.204;2023-02-28T02:07:43;10.43;;;3.73;;
19406;SDS011;9839;53.364;-1.204;2023-02-28T02:10:12;9.40;;;3.60;;
19406;SDS011;9839;53.364;-1.204;2023-02-28T02:17:44;8.03;;;3.37;;
19406;SDS011;9839;53.364;-1.204;2023-02-28T02:25:59;7.87;;;3.90;;
19406;SDS011;9839;53.364;-1.204;2023-02-28T02:40:14;9.87;;;2.60;;
19406;SDS011;9839;53.364;-1.204;2023-02-28T02:42:54;3.63;;;2.60;;
19406;SDS011;9839;53.364;-1.204;2023-02-28T02:47:48;5.20;;;2.63;;
19406;SDS011;9839;53.364;-1.204;2023-02-28T02:50:17;14.37;;;2.90;;
19406;SDS011;9839;53.364;-1.204;2023-02-28T02:52:49;5.13;;;2.93;;
19406;SDS011;9839;53.364;-1.204;2023-02-28T02:55:17;5.33;;;2.90;;
19406;SDS011;9839;53.364;-1.204;2023-02-28T02:57:54;5.07;;;3.00;;
19406;SDS011;9839;53.364;-1.204;2023-02-28T03:00:24;7.83;;;3.43;;
19406;SDS011;9839;53.364;-1.204;2023-02-28T03:02:55;6.03;;;2.93;;
19406;SDS011;9839;53.364;-1.204;2023-02-28T03:05:23;5.97;;;3.27;;
19406;SDS011;9839;53.364;-1.204;2023-02-28T03:07:51;5.50;;;3.00;;
19406;SDS011;9839;53.364;-1.204;2023-02-28T03:12:53;6.67;;;2.90;;
19406;SDS011;9839;53.364;-1.204;2023-02-28T03:18:13;5.40;;;2.80;;
19406;SDS011;9839;53.364;-1.204;2023-02-28T03:36:27;5.80;;;2.40;;
19406;SDS011;9839;53.364;-1.204;2023-02-28T03:38:57;3.80;;;2.53;;
19406;SDS011;9839;53.364;-1.204;2023-02-28T03:41:32;3.93;;;1.97;;
19406;SDS011;9839;53.364;-1.204;2023-02-28T03:44:05;6.67;;;2.50;;
19406;SDS011;9839;53.364;-1.204;2023-02-28T03:46:35;11.37;;;2.70;;
19406;SDS011;9839;53.364;-1.204;2023-02-28T03:49:24;3.57;;;2.30;;
19406;SDS011;9839;53.364;-1.204;2023-02-28T03:51:49;4.40;;;2.43;;
19406;SDS011;9839;53.364;-1.204;2023-02-28T03:54:16;6.10;;;2.47;;
19406;SDS011;9839;53.364;-1.204;2023-02-28T03:56:48;6.07;;;2.80;;
19406;SDS011;9839;53.364;-1.204;2023-02-28T04:00:04;5.80;;;2.77;;
19406;SDS011;9839;53.364;-1.204;2023-02-28T04:02:11;6.23;;;3.37;;
19406;SDS011;9839;53.364;-1.204;2023-02-28T04:04:36;8.77;;;3.60;;
19406;SDS011;9839;53.364;-1.204;2023-02-28T04:07:03;8.00;;;3.80;;
19406;SDS011;9839;53.364;-1.204;2023-02-28T04:09:32;11.67;;;4.43;;
19406;SDS011;9839;53.364;-1.204;2023-02-28T04:11:58;11.97;;;4.70;;
19406;SDS011;9839;53.364;-1.204;2023-02-28T04:14:23;13.97;;;6.27;;
19406;SDS011;9839;53.364;-1.204;2023-02-28T04:16:49;15.40;;;6.73;;
19406;SDS011;9839;53.364;-1.204;2023-02-28T04:19:16;21.23;;;8.73;;
19406;SDS011;9839;53.364;-1.204;2023-02-28T04:21:42;20.17;;;8.90;;
19406;SDS011;9839;53.364;-1.204;2023-02-28T04:24:10;20.90;;;9.67;;
19406;SDS011;9839;53.364;-1.204;2023-02-28T04:26:39;22.13;;;9.47;;
19406;SDS011;9839;53.364;-1.204;2023-02-28T04:29:08;20.07;;;9.53;;
19406;SDS011;9839;53.364;-1.204;2023-02-28T04:31:34;19.40;;;9.30;;
19406;SDS011;9839;53.364;-1.204;2023-02-28T04:34:00;26.10;;;8.93;;
19406;SDS011;9839;53.364;-1.204;2023-02-28T04:36:25;22.47;;;9.13;;
19406;SDS011;9839;53.364;-1.204;2023-02-28T04:38:51;19.17;;;8.57;;
19406;SDS011;9839;53.364;-1.204;2023-02-28T04:41:17;14.63;;;7.87;;
19406;SDS011;9839;53.364;-1.204;2023-02-28T04:43:42;13.97;;;7.10;;
19406;SDS011;9839;53.364;-1.204;2023-02-28T04:46:08;18.97;;;7.87;;
19406;SDS011;9839;53.364;-1.204;2023-02-28T04:48:36;19.10;;;8.23;;
19406;SDS011;9839;53.364;-1.204;2023-02-28T04:53:28;14.80;;;8.10;;
19406;SDS011;9839;53.364;-1.204;2023-02-28T04:55:54;12.67;;;7.00;;
19406;SDS011;9839;53.364;-1.204;2023-02-28T04:58:20;13.07;;;7.87;;
19406;SDS011;9839;53.364;-1.204;2023-02-28T05:00:48;12.30;;;7.60;;
19406;SDS011;9839;53.364;-1.204;2023-02-28T05:03:13;13.57;;;7.57;;
19406;SDS011;9839;53.364;-1.204;2023-02-28T05:05:39;13.27;;;7.07;;
19406;SDS011;9839;53.364;-1.204;2023-02-28T05:08:04;13.23;;;7.70;;
19406;SDS011;9839;53.364;-1.204;2023-02-28T05:10:30;12.27;;;6.57;;
19406;SDS011;9839;53.364;-1.204;2023-02-28T05:12:55;13.50;;;6.37;;
19406;SDS011;9839;53.364;-1.204;2023-02-28T05:15:21;10.07;;;5.83;;
19406;SDS011;9839;53.364;-1.204;2023-02-28T05:17:46;13.03;;;5.93;;
19406;SDS011;9839;53.364;-1.204;2023-02-28T05:20:12;11.20;;;5.43;;
19406;SDS011;9839;53.364;-1.204;2023-02-28T05:22:38;9.37;;;4.97;;
19406;SDS011;9839;53.364;-1.204;2023-02-28T05:25:04;8.10;;;5.10;;
19406;SDS011;9839;53.364;-1.204;2023-02-28T05:27:30;7.13;;;4.53;;
19406;SDS011;9839;53.364;-1.204;2023-02-28T05:29:56;11.37;;;4.80;;
19406;SDS011;9839;53.364;-1.204;2023-02-28T05:32:21;10.07;;;5.30;;
19406;SDS011;9839;53.364;-1.204;2023-02-28T05:34:47;9.23;;;4.93;;
19406;SDS011;9839;53.364;-1.204;2023-02-28T05:37:12;9.10;;;4.93;;
19406;SDS011;9839;53.364;-1.204;2023-02-28T05:39:38;8.40;;;4.60;;
19406;SDS011;9839;53.364;-1.204;2023-02-28T05:42:04;8.03;;;4.53;;
19406;SDS011;9839;53.364;-1.204;2023-02-28T05:44:30;7.73;;;4.50;;
19406;SDS011;9839;53.364;-1.204;2023-02-28T05:46:55;12.73;;;5.43;;
19406;SDS011;9839;53.364;-1.204;2023-02-28T05:49:20;9.87;;;5.17;;
19406;SDS011;9839;53.364;-1.204;2023-02-28T05:51:46;10.17;;;5.27;;
19406;SDS011;9839;53.364;-1.204;2023-02-28T05:54:11;7.80;;;4.27;;
19406;SDS011;9839;53.364;-1.204;2023-02-28T05:56:37;10.70;;;5.27;;
19406;SDS011;9839;53.364;-1.204;2023-02-28T05:59:08;7.73;;;4.53;;
19406;SDS011;9839;53.364;-1.204;2023-02-28T06:01:36;9.23;;;4.90;;
19406;SDS011;9839;53.364;-1.204;2023-02-28T06:04:03;11.03;;;5.67;;
19406;SDS011;9839;53.364;-1.204;2023-02-28T06:06:30;8.97;;;5.27;;
19406;SDS011;9839;53.364;-1.204;2023-02-28T06:08:56;12.20;;;5.23;;
19406;SDS011;9839;53.364;-1.204;2023-02-28T06:11:22;10.50;;;6.00;;
19406;SDS011;9839;53.364;-1.204;2023-02-28T06:13:53;11.60;;;6.20;;
19406;SDS011;9839;53.364;-1.204;2023-02-28T06:16:22;11.60;;;5.90;;
19406;SDS011;9839;53.364;-1.204;2023-02-28T06:18:48;11.90;;;5.30;;
19406;SDS011;9839;53.364;-1.204;2023-02-28T06:21:13;12.53;;;5.67;;
19406;SDS011;9839;53.364;-1.204;2023-02-28T06:23:39;9.27;;;4.97;;
19406;SDS011;9839;53.364;-1.204;2023-02-28T06:26:04;11.00;;;5.43;;
19406;SDS011;9839;53.364;-1.204;2023-02-28T06:28:30;20.40;;;5.93;;
19406;SDS011;9839;53.364;-1.204;2023-02-28T06:30:55;11.27;;;5.40;;
19406;SDS011;9839;53.364;-1.204;2023-02-28T06:33:21;14.97;;;5.33;;
19406;SDS011;9839;53.364;-1.204;2023-02-28T06:35:47;10.93;;;4.70;;
19406;SDS011;9839;53.364;-1.204;2023-02-28T06:38:15;15.23;;;5.93;;
19406;SDS011;9839;53.364;-1.204;2023-02-28T06:40:40;11.63;;;5.50;;
19406;SDS011;9839;53.364;-1.204;2023-02-28T06:43:06;11.17;;;5.20;;
19406;SDS011;9839;53.364;-1.204;2023-02-28T06:45:32;14.87;;;5.53;;
19406;SDS011;9839;53.364;-1.204;2023-02-28T06:47:57;9.77;;;5.70;;
19406;SDS011;9839;53.364;-1.204;2023-02-28T06:50:23;15.30;;;5.30;;
19406;SDS011;9839;53.364;-1.204;2023-02-28T06:52:48;9.47;;;5.03;;
19406;SDS011;9839;53.364;-1.204;2023-02-28T06:55:18;12.93;;;4.90;;
19406;SDS011;9839;53.364;-1.204;2023-02-28T06:57:44;10.63;;;4.53;;
19406;SDS011;9839;53.364;-1.204;2023-02-28T07:00:09;10.93;;;4.77;;
19406;SDS011;9839;53.364;-1.204;2023-02-28T07:02:35;11.70;;;4.37;;
19406;SDS011;9839;53.364;-1.204;2023-02-28T07:05:02;10.50;;;4.80;;
19406;SDS011;9839;53.364;-1.204;2023-02-28T07:07:28;10.20;;;4.67;;
19406;SDS011;9839;53.364;-1.204;2023-02-28T07:09:54;9.67;;;4.70;;
19406;SDS011;9839;53.364;-1.204;2023-02-28T07:12:19;7.83;;;4.30;;
19406;SDS011;9839;53.364;-1.204;2023-02-28T07:14:45;7.37;;;3.80;;
19406;SDS011;9839;53.364;-1.204;2023-02-28T07:17:10;11.63;;;4.10;;
19406;SDS011;9839;53.364;-1.204;2023-02-28T07:19:37;11.23;;;4.27;;
19406;SDS011;9839;53.364;-1.204;2023-02-28T07:22:06;12.10;;;3.83;;
19406;SDS011;9839;53.364;-1.204;2023-02-28T07:24:32;7.20;;;3.67;;
19406;SDS011;9839;53.364;-1.204;2023-02-28T07:26:57;8.60;;;3.70;;
19406;SDS011;9839;53.364;-1.204;2023-02-28T07:29:24;8.13;;;3.83;;
19406;SDS011;9839;53.364;-1.204;2023-02-28T07:31:49;13.63;;;5.13;;
19406;SDS011;9839;53.364;-1.204;2023-02-28T07:34:18;9.73;;;5.17;;
19406;SDS011;9839;53.364;-1.204;2023-02-28T07:36:44;13.90;;;6.57;;
19406;SDS011;9839;53.364;-1.204;2023-02-28T07:39:09;14.90;;;6.27;;
19406;SDS011;9839;53.364;-1.204;2023-02-28T07:41:35;16.70;;;6.57;;
19406;SDS011;9839;53.364;-1.204;2023-02-28T07:44:04;15.83;;;6.37;;
19406;SDS011;9839;53.364;-1.204;2023-02-28T07:46:30;14.73;;;6.47;;
19406;SDS011;9839;53.364;-1.204;2023-02-28T07:49:00;10.30;;;5.50;;
19406;SDS011;9839;53.364;-1.204;2023-02-28T07:51:27;12.97;;;6.10;;
19406;SDS011;9839;53.364;-1.204;2023-02-28T07:53:56;16.80;;;6.83;;
19406;SDS011;9839;53.364;-1.204;2023-02-28T07:56:22;13.43;;;6.37;;
19406;SDS011;9839;53.364;-1.204;2023-02-28T07:58:47;11.33;;;4.63;;
19406;SDS011;9839;53.364;-1.204;2023-02-28T08:01:12;8.23;;;4.00;;
19406;SDS011;9839;53.364;-1.204;2023-02-28T08:03:39;7.63;;;4.07;;
19406;SDS011;9839;53.364;-1.204;2023-02-28T08:06:05;11.10;;;3.57;;
19406;SDS011;9839;53.364;-1.204;2023-02-28T08:08:32;8.70;;;2.90;;
19406;SDS011;9839;53.364;-1.204;2023-02-28T08:11:01;9.77;;;4.20;;
19406;SDS011;9839;53.364;-1.204;2023-02-28T08:13:28;9.43;;;4.20;;
19406;SDS011;9839;53.364;-1.204;2023-02-28T08:15:54;11.83;;;3.40;;
19406;SDS011;9839;53.364;-1.204;2023-02-28T08:18:21;7.50;;;3.40;;
19406;SDS011;9839;53.364;-1.204;2023-02-28T08:20:46;11.07;;;3.20;;
19406;SDS011;9839;53.364;-1.204;2023-02-28T08:23:12;5.53;;;2.97;;
19406;SDS011;9839;53.364;-1.204;2023-02-28T08:25:38;7.90;;;2.80;;
19406;SDS011;9839;53.364;-1.204;2023-02-28T08:28:03;9.83;;;3.47;;
19406;SDS011;9839;53.364;-1.204;2023-02-28T08:30:29;7.30;;;3.47;;
19406;SDS011;9839;53.364;-1.204;2023-02-28T08:32:54;9.17;;;3.17;;
19406;SDS011;9839;53.364;-1.204;2023-02-28T08:35:20;7.87;;;3.33;;
19406;SDS011;9839;53.364;-1.204;2023-02-28T08:37:47;6.37;;;3.33;;
19406;SDS011;9839;53.364;-1.204;2023-02-28T08:40:13;6.93;;;3.33;;
19406;SDS011;9839;53.364;-1.204;2023-02-28T08:42:43;8.03;;;3.90;;
19406;SDS011;9839;53.364;-1.204;2023-02-28T08:45:11;5.23;;;3.20;;
19406;SDS011;9839;53.364;-1.204;2023-02-28T08:47:37;5.43;;;3.20;;
19406;SDS011;9839;53.364;-1.204;2023-02-28T08:50:03;7.47;;;2.83;;
19406;SDS011;9839;53.364;-1.204;2023-02-28T08:52:29;7.20;;;2.60;;
19406;SDS011;9839;53.364;-1.204;2023-02-28T08:54:55;5.10;;;3.00;;
19406;SDS011;9839;53.364;-1.204;2023-02-28T08:57:20;7.07;;;2.60;;
19406;SDS011;9839;53.364;-1.204;2023-02-28T08:59:45;5.77;;;2.43;;
19406;SDS011;9839;53.364;-1.204;2023-02-28T09:02:14;7.17;;;3.67;;
19406;SDS011;9839;53.364;-1.204;2023-02-28T09:04:40;5.13;;;2.27;;
19406;SDS011;9839;53.364;-1.204;2023-02-28T09:07:06;9.13;;;3.00;;
19406;SDS011;9839;53.364;-1.204;2023-02-28T09:09:31;7.93;;;2.73;;
19406;SDS011;9839;53.364;-1.204;2023-02-28T09:11:57;5.43;;;2.70;;
19406;SDS011;9839;53.364;-1.204;2023-02-28T09:14:22;5.47;;;3.17;;
19406;SDS011;9839;53.364;-1.204;2023-02-28T09:16:48;6.10;;;3.37;;
19406;SDS011;9839;53.364;-1.204;2023-02-28T09:19:14;13.17;;;3.60;;
19406;SDS011;9839;53.364;-1.204;2023-02-28T09:21:39;8.57;;;3.60;;
19406;SDS011;9839;53.364;-1.204;2023-02-28T09:24:05;5.37;;;3.20;;
19406;SDS011;9839;53.364;-1.204;2023-02-28T09:26:31;7.17;;;3.27;;
19406;SDS011;9839;53.364;-1.204;2023-02-28T09:28:57;4.53;;;2.93;;
19406;SDS011;9839;53.364;-1.204;2023-02-28T09:31:25;7.67;;;3.60;;
19406;SDS011;9839;53.364;-1.204;2023-02-28T09:33:54;6.70;;;3.00;;
19406;SDS011;9839;53.364;-1.204;2023-02-28T09:36:21;8.53;;;3.33;;
19406;SDS011;9839;53.364;-1.204;2023-02-28T09:38:47;5.53;;;2.13;;
19406;SDS011;9839;53.364;-1.204;2023-02-28T09:41:19;10.47;;;2.40;;
19406;SDS011;9839;53.364;-1.204;2023-02-28T09:43:47;4.87;;;2.47;;
19406;SDS011;9839;53.364;-1.204;2023-02-28T09:48:52;4.73;;;2.80;;
19406;SDS011;9839;53.364;-1.204;2023-02-28T09:54:19;7.07;;;2.70;;
19406;SDS011;9839;53.364;-1.204;2023-02-28T09:56:54;3.93;;;2.17;;
19406;SDS011;9839;53.364;-1.204;2023-02-28T10:05:41;5.77;;;2.00;;
19406;SDS011;9839;53.364;-1.204;2023-02-28T10:11:00;6.77;;;2.87;;
19406;SDS011;9839;53.364;-1.204;2023-02-28T10:13:37;3.70;;;1.83;;
19406;SDS011;9839;53.364;-1.204;2023-02-28T10:16:21;6.33;;;2.00;;
19406;SDS011;9839;53.364;-1.204;2023-02-28T10:21:48;6.13;;;1.90;;
19406;SDS011;9839;53.364;-1.204;2023-02-28T10:24:35;2.10;;;1.47;;
19406;SDS011;9839;53.364;-1.204;2023-02-28T10:27:27;4.93;;;1.80;;
19406;SDS011;9839;53.364;-1.204;2023-02-28T10:29:55;4.67;;;1.67;;
19406;SDS011;9839;53.364;-1.204;2023-02-28T10:32:25;4.07;;;1.33;;
19406;SDS011;9839;53.364;-1.204;2023-02-28T10:34:57;3.00;;;1.30;;
19406;SDS011;9839;53.364;-1.204;2023-02-28T10:37:40;2.73;;;1.07;;
19406;SDS011;9839;53.364;-1.204;2023-02-28T10:40:25;3.93;;;0.90;;
19406;SDS011;9839;53.364;-1.204;2023-02-28T10:45:37;2.00;;;1.00;;
19406;SDS011;9839;53.364;-1.204;2023-02-28T10:50:50;4.40;;;1.30;;
19406;SDS011;9839;53.364;-1.204;2023-02-28T11:01:36;2.03;;;1.30;;
19406;SDS011;9839;53.364;-1.204;2023-02-28T11:04:17;2.20;;;1.30;;
19406;SDS011;9839;53.364;-1.204;2023-02-28T11:09:46;2.57;;;1.77;;
19406;SDS011;9839;53.364;-1.204;2023-02-28T11:14:52;3.00;;;1.03;;
19406;SDS011;9839;53.364;-1.204;2023-02-28T11:17:21;5.57;;;1.37;;
19406;SDS011;9839;53.364;-1.204;2023-02-28T11:19:50;7.33;;;1.73;;
19406;SDS011;9839;53.364;-1.204;2023-02-28T11:22:18;3.23;;;1.90;;
19406;SDS011;9839;53.364;-1.204;2023-02-28T11:24:47;2.43;;;1.30;;
19406;SDS011;9839;53.364;-1.204;2023-02-28T11:27:57;2.40;;;1.33;;
19406;SDS011;9839;53.364;-1.204;2023-02-28T11:30:23;3.90;;;1.30;;
19406;SDS011;9839;53.364;-1.204;2023-02-28T11:32:49;2.00;;;1.10;;
19406;SDS011;9839;53.364;-1.204;2023-02-28T11:35:20;3.33;;;1.10;;
19406;SDS011;9839;53.364;-1.204;2023-02-28T11:37:51;4.00;;;0.97;;
19406;SDS011;9839;53.364;-1.204;2023-02-28T11:40:18;2.13;;;0.83;;
19406;SDS011;9839;53.364;-1.204;2023-02-28T11:42:53;1.23;;;0.70;;
19406;SDS011;9839;53.364;-1.204;2023-02-28T11:59:06;3.77;;;1.00;;
19406;SDS011;9839;53.364;-1.204;2023-02-28T12:01:48;4.13;;;0.93;;
19406;SDS011;9839;53.364;-1.204;2023-02-28T12:07:07;1.80;;;1.10;;
19406;SDS011;9839;53.364;-1.204;2023-02-28T12:09:40;1.80;;;1.10;;
19406;SDS011;9839;53.364;-1.204;2023-02-28T12:12:15;1.67;;;1.17;;
19406;SDS011;9839;53.364;-1.204;2023-02-28T12:20:42;6.13;;;1.83;;
19406;SDS011;9839;53.364;-1.204;2023-02-28T12:29:25;3.80;;;2.00;;
19406;SDS011;9839;53.364;-1.204;2023-02-28T13:11:31;1.97;;;1.40;;
19406;SDS011;9839;53.364;-1.204;2023-02-28T13:14:03;2.67;;;1.20;;
19406;SDS011;9839;53.364;-1.204;2023-02-28T13:24:57;2.40;;;1.43;;
19406;SDS011;9839;53.364;-1.204;2023-02-28T13:27:24;1.57;;;1.27;;
19406;SDS011;9839;53.364;-1.204;2023-02-28T13:29:57;1.80;;;1.53;;
19406;SDS011;9839;53.364;-1.204;2023-02-28T13:50:13;5.60;;;1.57;;
19406;SDS011;9839;53.364;-1.204;2023-02-28T13:52:43;2.63;;;1.63;;
19406;SDS011;9839;53.364;-1.204;2023-02-28T13:55:24;3.13;;;1.87;;
19406;SDS011;9839;53.364;-1.204;2023-02-28T14:03:27;3.30;;;1.80;;
19406;SDS011;9839;53.364;-1.204;2023-02-28T14:11:39;8.47;;;5.37;;
19406;SDS011;9839;53.364;-1.204;2023-02-28T14:14:06;21.87;;;12.57;;
19406;SDS011;9839;53.364;-1.204;2023-02-28T14:19:02;62.33;;;43.77;;
19406;SDS011;9839;53.364;-1.204;2023-02-28T14:21:34;45.33;;;29.57;;
19406;SDS011;9839;53.364;-1.204;2023-02-28T14:38:07;4.70;;;2.43;;
19406;SDS011;9839;53.364;-1.204;2023-02-28T14:40:49;4.37;;;2.13;;
19406;SDS011;9839;53.364;-1.204;2023-02-28T14:43:21;6.03;;;1.47;;
19406;SDS011;9839;53.364;-1.204;2023-02-28T14:45:58;10.00;;;1.83;;
19406;SDS011;9839;53.364;-1.204;2023-02-28T14:48:25;8.17;;;1.50;;
19406;SDS011;9839;53.364;-1.204;2023-02-28T14:50:52;6.23;;;1.20;;
19406;SDS011;9839;53.364;-1.204;2023-02-28T14:53:27;5.37;;;1.10;;
19406;SDS011;9839;53.364;-1.204;2023-02-28T14:55:54;6.97;;;1.33;;
19406;SDS011;9839;53.364;-1.204;2023-02-28T14:58:29;2.30;;;1.00;;
19406;SDS011;9839;53.364;-1.204;2023-02-28T15:00:57;1.90;;;1.00;;
19406;SDS011;9839;53.364;-1.204;2023-02-28T15:08:42;4.30;;;1.50;;
19406;SDS011;9839;53.364;-1.204;2023-02-28T15:11:14;3.77;;;1.30;;
19406;SDS011;9839;53.364;-1.204;2023-02-28T15:13:53;2.07;;;1.20;;
19406;SDS011;9839;53.364;-1.204;2023-02-28T15:16:26;2.93;;;1.20;;
19406;SDS011;9839;53.364;-1.204;2023-02-28T15:19:07;2.63;;;1.30;;
19406;SDS011;9839;53.364;-1.204;2023-02-28T15:21:41;7.07;;;1.20;;
19406;SDS011;9839;53.364;-1.204;2023-02-28T15:26:59;5.67;;;1.77;;
19406;SDS011;9839;53.364;-1.204;2023-02-28T15:29:26;4.70;;;2.60;;
19406;SDS011;9839;53.364;-1.204;2023-02-28T15:32:03;4.97;;;1.57;;
19406;SDS011;9839;53.364;-1.204;2023-02-28T15:34:40;5.67;;;1.17;;
19406;SDS011;9839;53.364;-1.204;2023-02-28T15:39:51;4.30;;;1.43;;
19406;SDS011;9839;53.364;-1.204;2023-02-28T15:42:18;4.10;;;1.40;;
19406;SDS011;9839;53.364;-1.204;2023-02-28T15:44:46;3.73;;;1.07;;
19406;SDS011;9839;53.364;-1.204;2023-02-28T15:47:18;5.37;;;1.13;;
19406;SDS011;9839;53.364;-1.204;2023-02-28T15:49:58;6.27;;;1.03;;
19406;SDS011;9839;53.364;-1.204;2023-02-28T15:52:39;2.63;;;1.10;;
19406;SDS011;9839;53.364;-1.204;2023-02-28T15:57:34;5.00;;;1.27;;
19406;SDS011;9839;53.364;-1.204;2023-02-28T16:00:00;3.63;;;1.60;;
19406;SDS011;9839;53.364;-1.204;2023-02-28T16:02:33;4.67;;;1.50;;
19406;SDS011;9839;53.364;-1.204;2023-02-28T16:07:45;3.13;;;0.93;;
19406;SDS011;9839;53.364;-1.204;2023-02-28T16:10:13;3.43;;;0.80;;
19406;SDS011;9839;53.364;-1.204;2023-02-28T16:12:39;3.27;;;1.10;;
19406;SDS011;9839;53.364;-1.204;2023-02-28T16:15:09;4.80;;;1.03;;
19406;SDS011;9839;53.364;-1.204;2023-02-28T16:17:42;2.03;;;0.60;;
19406;SDS011;9839;53.364;-1.204;2023-02-28T16:20:12;2.43;;;0.77;;
19406;SDS011;9839;53.364;-1.204;2023-02-28T16:22:39;1.30;;;0.80;;
19406;SDS011;9839;53.364;-1.204;2023-02-28T16:25:04;4.90;;;0.80;;
19406;SDS011;9839;53.364;-1.204;2023-02-28T16:27:35;1.50;;;0.97;;
19406;SDS011;9839;53.364;-1.204;2023-02-28T16:30:01;2.40;;;1.00;;
19406;SDS011;9839;53.364;-1.204;2023-02-28T16:32:28;3.83;;;1.60;;
19406;SDS011;9839;53.364;-1.204;2023-02-28T16:34:54;1.70;;;1.17;;
19406;SDS011;9839;53.364;-1.204;2023-02-28T16:37:19;3.13;;;1.40;;
19406;SDS011;9839;53.364;-1.204;2023-02-28T16:39:45;4.37;;;1.50;;
19406;SDS011;9839;53.364;-1.204;2023-02-28T16:42:31;2.93;;;1.53;;
19406;SDS011;9839;53.364;-1.204;2023-02-28T16:44:56;5.13;;;2.40;;
19406;SDS011;9839;53.364;-1.204;2023-02-28T16:47:23;5.37;;;1.87;;
19406;SDS011;9839;53.364;-1.204;2023-02-28T16:49:49;3.63;;;1.97;;
19406;SDS011;9839;53.364;-1.204;2023-02-28T16:52:14;4.47;;;1.80;;
19406;SDS011;9839;53.364;-1.204;2023-02-28T16:54:40;5.80;;;2.70;;
19406;SDS011;9839;53.364;-1.204;2023-02-28T16:57:06;5.10;;;2.00;;
19406;SDS011;9839;53.364;-1.204;2023-02-28T16:59:41;3.47;;;1.77;;
19406;SDS011;9839;53.364;-1.204;2023-02-28T17:02:16;3.97;;;2.10;;
19406;SDS011;9839;53.364;-1.204;2023-02-28T17:04:44;3.33;;;1.40;;
19406;SDS011;9839;53.364;-1.204;2023-02-28T17:07:13;4.87;;;2.00;;
19406;SDS011;9839;53.364;-1.204;2023-02-28T17:09:41;4.70;;;1.90;;
19406;SDS011;9839;53.364;-1.204;2023-02-28T17:12:06;5.33;;;1.27;;
19406;SDS011;9839;53.364;-1.204;2023-02-28T17:14:33;2.23;;;1.33;;
19406;SDS011;9839;53.364;-1.204;2023-02-28T17:16:58;3.33;;;1.53;;
19406;SDS011;9839;53.364;-1.204;2023-02-28T17:19:24;2.00;;;1.00;;
19406;SDS011;9839;53.364;-1.204;2023-02-28T17:21:49;2.67;;;1.20;;
19406;SDS011;9839;53.364;-1.204;2023-02-28T17:24:15;1.97;;;0.80;;
19406;SDS011;9839;53.364;-1.204;2023-02-28T17:26:40;1.50;;;0.90;;
19406;SDS011;9839;53.364;-1.204;2023-02-28T17:29:14;2.30;;;1.00;;
19406;SDS011;9839;53.364;-1.204;2023-02-28T17:31:40;2.40;;;1.10;;
19406;SDS011;9839;53.364;-1.204;2023-02-28T17:34:06;4.33;;;1.63;;
19406;SDS011;9839;53.364;-1.204;2023-02-28T17:36:31;4.60;;;1.50;;
19406;SDS011;9839;53.364;-1.204;2023-02-28T17:38:58;4.90;;;1.20;;
19406;SDS011;9839;53.364;-1.204;2023-02-28T17:41:24;3.27;;;1.40;;
19406;SDS011;9839;53.364;-1.204;2023-02-28T17:43:51;2.37;;;1.43;;
19406;SDS011;9839;53.364;-1.204;2023-02-28T17:46:17;2.13;;;1.00;;
19406;SDS011;9839;53.364;-1.204;2023-02-28T17:48:48;4.63;;;1.20;;
19406;SDS011;9839;53.364;-1.204;2023-02-28T17:51:14;2.57;;;1.20;;
19406;SDS011;9839;53.364;-1.204;2023-02-28T17:53:40;3.57;;;1.63;;
19406;SDS011;9839;53.364;-1.204;2023-02-28T17:56:10;3.70;;;1.73;;
19406;SDS011;9839;53.364;-1.204;2023-02-28T17:58:38;4.93;;;2.20;;
19406;SDS011;9839;53.364;-1.204;2023-02-28T18:01:03;8.47;;;2.47;;
19406;SDS011;9839;53.364;-1.204;2023-02-28T18:03:29;8.40;;;2.83;;
19406;SDS011;9839;53.364;-1.204;2023-02-28T18:05:56;3.43;;;1.73;;
19406;SDS011;9839;53.364;-1.204;2023-02-28T18:08:22;4.27;;;1.30;;
19406;SDS011;9839;53.364;-1.204;2023-02-28T18:10:47;4.43;;;1.53;;
19406;SDS011;9839;53.364;-1.204;2023-02-28T18:13:13;4.07;;;1.43;;
19406;SDS011;9839;53.364;-1.204;2023-02-28T18:15:38;3.53;;;1.43;;
19406;SDS011;9839;53.364;-1.204;2023-02-28T18:18:04;5.67;;;1.77;;
19406;SDS011;9839;53.364;-1.204;2023-02-28T18:20:31;6.87;;;1.97;;
19406;SDS011;9839;53.364;-1.204;2023-02-28T18:22:58;4.57;;;1.90;;
19406;SDS011;9839;53.364;-1.204;2023-02-28T18:25:23;5.37;;;2.03;;
19406;SDS011;9839;53.364;-1.204;2023-02-28T18:27:49;7.27;;;2.50;;
19406;SDS011;9839;53.364;-1.204;2023-02-28T18:30:27;7.07;;;3.00;;
19406;SDS011;9839;53.364;-1.204;2023-02-28T18:32:58;4.17;;;2.20;;